createdAt,value
2022-12-17T00:00:00.289Z,1015.36
2022-12-17T00:01:00.401Z,1015.37
2022-12-17T00:02:00.299Z,1015.41
2022-12-17T00:03:00.389Z,1015.42
2022-12-17T00:04:00.421Z,1015.42
2022-12-17T00:05:00.307Z,1015.43
2022-12-17T00:06:00.311Z,1015.42
2022-12-17T00:07:00.321Z,1015.42
2022-12-17T00:08:00.323Z,1015.49
2022-12-17T00:09:00.335Z,1015.46
2022-12-17T00:10:00.333Z,1015.44
2022-12-17T00:11:00.339Z,1015.47
2022-12-17T00:12:00.348Z,1015.46
2022-12-17T00:13:00.353Z,1015.47
2022-12-17T00:14:00.359Z,1015.46
2022-12-17T00:15:00.365Z,1015.50
2022-12-17T00:16:00.421Z,1015.52
2022-12-17T00:17:00.374Z,1015.52
2022-12-17T00:18:00.382Z,1015.50
2022-12-17T00:19:00.394Z,1015.56
2022-12-17T00:20:00.404Z,1015.54
2022-12-17T00:21:00.400Z,1015.55
2022-12-17T00:22:00.406Z,1015.56
2022-12-17T00:23:00.415Z,1015.56
2022-12-17T00:24:00.420Z,1015.59
2022-12-17T00:25:00.430Z,1015.58
2022-12-17T00:26:00.453Z,1015.64
2022-12-17T00:27:00.444Z,1015.63
2022-12-17T00:28:00.466Z,1015.62
2022-12-17T00:29:00.468Z,1015.64
2022-12-17T00:30:00.464Z,1015.65
2022-12-17T00:31:00.558Z,1015.63
2022-12-17T00:32:00.466Z,1015.62
2022-12-17T00:33:00.472Z,1015.67
2022-12-17T00:34:00.476Z,1015.63
2022-12-17T00:35:00.488Z,1015.62
2022-12-17T00:36:00.514Z,1015.62
2022-12-17T00:37:00.501Z,1015.64
2022-12-17T00:38:00.522Z,1015.70
2022-12-17T00:39:00.522Z,1015.66
2022-12-17T00:40:00.524Z,1015.69
2022-12-17T00:41:00.518Z,1015.67
2022-12-17T00:42:00.524Z,1015.63
2022-12-17T00:43:00.531Z,1015.65
2022-12-17T00:44:00.538Z,1015.66
2022-12-17T00:45:00.545Z,1015.68
2022-12-17T00:46:00.550Z,1015.71
2022-12-17T00:47:00.659Z,1015.71
2022-12-17T00:48:00.563Z,1015.75
2022-12-17T00:49:00.567Z,1015.72
2022-12-17T00:50:00.573Z,1015.75
2022-12-17T00:51:00.578Z,1015.78
2022-12-17T00:52:00.586Z,1015.80
2022-12-17T00:53:00.592Z,1015.81
2022-12-17T00:54:00.596Z,1015.85
2022-12-17T00:55:00.603Z,1015.90
2022-12-17T00:56:00.610Z,1015.92
2022-12-17T00:57:00.615Z,1015.89
2022-12-17T00:58:00.622Z,1015.90
2022-12-17T00:59:00.626Z,1015.93
2022-12-17T01:00:00.632Z,1015.91
2022-12-17T01:01:00.708Z,1015.93
2022-12-17T01:02:00.743Z,1015.94
2022-12-17T01:03:00.716Z,1015.96
2022-12-17T01:04:00.655Z,1015.97
2022-12-17T01:05:00.663Z,1015.99
2022-12-17T01:06:00.668Z,1016.00
2022-12-17T01:07:00.679Z,1016.02
2022-12-17T01:08:00.680Z,1016.03
2022-12-17T01:09:00.686Z,1016.04
2022-12-17T01:10:00.692Z,1016.06
2022-12-17T01:11:00.699Z,1016.11
2022-12-17T01:12:00.706Z,1016.09
2022-12-17T01:13:00.709Z,1016.09
2022-12-17T01:14:00.719Z,1016.13
2022-12-17T01:15:00.728Z,1016.20
2022-12-17T01:16:00.793Z,1016.18
2022-12-17T01:17:00.737Z,1016.17
2022-12-17T01:18:00.740Z,1016.17
2022-12-17T01:19:00.746Z,1016.19
2022-12-17T01:20:00.806Z,1016.18
2022-12-17T01:21:00.761Z,1016.16
2022-12-17T01:22:00.765Z,1016.18
2022-12-17T01:23:00.769Z,1016.17
2022-12-17T01:24:00.777Z,1016.22
2022-12-17T01:25:00.786Z,1016.19
2022-12-17T01:26:00.789Z,1016.22
2022-12-17T01:27:00.795Z,1016.23
2022-12-17T01:28:00.799Z,1016.25
2022-12-17T01:29:00.804Z,1016.23
2022-12-17T01:30:00.813Z,1016.20
2022-12-17T01:31:00.819Z,1016.24
2022-12-17T01:32:00.870Z,1016.25
2022-12-17T01:33:00.827Z,1016.25
2022-12-17T01:34:00.835Z,1016.22
2022-12-17T01:35:00.850Z,1016.23
2022-12-17T01:36:00.851Z,1016.25
2022-12-17T01:37:00.854Z,1016.25
2022-12-17T01:38:00.861Z,1016.24
2022-12-17T01:39:00.866Z,1016.28
2022-12-17T01:40:00.874Z,1016.25
2022-12-17T01:41:00.880Z,1016.27
2022-12-17T01:42:00.884Z,1016.27
2022-12-17T01:43:00.891Z,1016.31
2022-12-17T01:44:00.894Z,1016.33
2022-12-17T01:45:00.903Z,1016.30
2022-12-17T01:46:00.979Z,1016.29
2022-12-17T01:47:00.912Z,1016.31
2022-12-17T01:48:00.921Z,1016.33
2022-12-17T01:49:00.927Z,1016.37
2022-12-17T01:50:00.931Z,1016.40
2022-12-17T01:51:00.940Z,1016.38
2022-12-17T01:52:00.950Z,1016.37
2022-12-17T01:53:00.950Z,1016.38
2022-12-17T01:54:00.956Z,1016.40
2022-12-17T01:55:00.962Z,1016.39
2022-12-17T01:56:00.966Z,1016.35
2022-12-17T01:57:00.977Z,1016.41
2022-12-17T01:58:00.981Z,1016.41
2022-12-17T01:59:00.986Z,1016.40
2022-12-17T02:00:00.991Z,1016.43
2022-12-17T02:01:01.025Z,1016.41
2022-12-17T02:02:01.167Z,1016.41
2022-12-17T02:03:01.145Z,1016.44
2022-12-17T02:04:01.015Z,1016.47
2022-12-17T02:05:01.021Z,1016.43
2022-12-17T02:06:01.025Z,1016.46
2022-12-17T02:07:01.084Z,1016.48
2022-12-17T02:08:01.041Z,1016.46
2022-12-17T02:09:01.044Z,1016.50
2022-12-17T02:10:01.068Z,1016.47
2022-12-17T02:11:01.057Z,1016.44
2022-12-17T02:12:01.065Z,1016.46
2022-12-17T02:13:01.075Z,1016.44
2022-12-17T02:14:01.074Z,1016.42
2022-12-17T02:15:01.083Z,1016.50
2022-12-17T02:16:01.128Z,1016.47
2022-12-17T02:17:01.091Z,1016.47
2022-12-17T02:18:01.099Z,1016.48
2022-12-17T02:19:01.107Z,1016.44
2022-12-17T02:20:01.109Z,1016.47
2022-12-17T02:21:01.115Z,1016.45
2022-12-17T02:22:01.121Z,1016.44
2022-12-17T02:23:01.128Z,1016.42
2022-12-17T02:24:01.133Z,1016.42
2022-12-17T02:25:01.139Z,1016.41
2022-12-17T02:26:01.143Z,1016.40
2022-12-17T02:27:01.162Z,1016.40
2022-12-17T02:28:01.157Z,1016.39
2022-12-17T02:29:01.160Z,1016.44
2022-12-17T02:30:01.166Z,1016.41
2022-12-17T02:31:01.173Z,1016.43
2022-12-17T02:32:01.307Z,1016.40
2022-12-17T02:33:01.183Z,1016.36
2022-12-17T02:34:01.188Z,1016.38
2022-12-17T02:35:01.195Z,1016.37
2022-12-17T02:36:01.202Z,1016.38
2022-12-17T02:37:01.206Z,1016.41
2022-12-17T02:38:01.212Z,1016.42
2022-12-17T02:39:01.218Z,1016.43
2022-12-17T02:40:01.227Z,1016.44
2022-12-17T02:41:01.228Z,1016.43
2022-12-17T02:42:01.235Z,1016.40
2022-12-17T02:43:01.239Z,1016.50
2022-12-17T02:44:01.247Z,1016.50
2022-12-17T02:45:01.256Z,1016.51
2022-12-17T02:46:01.285Z,1016.52
2022-12-17T02:47:01.263Z,1016.53
2022-12-17T02:48:01.268Z,1016.53
2022-12-17T02:49:01.273Z,1016.54
2022-12-17T02:50:01.280Z,1016.56
2022-12-17T02:51:01.286Z,1016.57
2022-12-17T02:52:01.292Z,1016.55
2022-12-17T02:53:01.297Z,1016.55
2022-12-17T02:54:01.300Z,1016.58
2022-12-17T02:55:01.310Z,1016.60
2022-12-17T02:56:01.315Z,1016.59
2022-12-17T02:57:01.320Z,1016.60
2022-12-17T02:58:01.324Z,1016.64
2022-12-17T02:59:01.332Z,1016.63
2022-12-17T03:00:01.341Z,1016.61
2022-12-17T03:01:01.367Z,1016.65
2022-12-17T03:02:01.507Z,1016.61
2022-12-17T03:03:01.448Z,1016.66
2022-12-17T03:04:01.358Z,1016.64
2022-12-17T03:05:21.134Z,1016.66
2022-12-17T03:06:01.369Z,1016.64
2022-12-17T03:07:01.381Z,1016.66
2022-12-17T03:08:01.385Z,1016.70
2022-12-17T03:09:01.385Z,1016.68
2022-12-17T03:10:01.399Z,1016.69
2022-12-17T03:11:01.396Z,1016.69
2022-12-17T03:12:01.405Z,1016.74
2022-12-17T03:13:01.411Z,1016.70
2022-12-17T03:14:01.425Z,1016.72
2022-12-17T03:15:01.419Z,1016.70
2022-12-17T03:16:01.426Z,1016.72
2022-12-17T03:17:01.455Z,1016.75
2022-12-17T03:18:01.437Z,1016.77
2022-12-17T03:19:01.443Z,1016.74
2022-12-17T03:20:01.453Z,1016.75
2022-12-17T03:21:01.452Z,1016.80
2022-12-17T03:22:01.461Z,1016.80
2022-12-17T03:23:01.465Z,1016.82
2022-12-17T03:24:01.470Z,1016.82
2022-12-17T03:25:01.476Z,1016.82
2022-12-17T03:26:01.483Z,1016.84
2022-12-17T03:27:01.489Z,1016.83
2022-12-17T03:28:01.493Z,1016.83
2022-12-17T03:29:01.498Z,1016.81
2022-12-17T03:30:01.504Z,1016.83
2022-12-17T03:31:01.544Z,1016.79
2022-12-17T03:32:01.515Z,1016.83
2022-12-17T03:33:01.519Z,1016.82
2022-12-17T03:34:01.526Z,1016.83
2022-12-17T03:35:01.531Z,1016.82
2022-12-17T03:36:01.537Z,1016.83
2022-12-17T03:37:01.543Z,1016.88
2022-12-17T03:38:01.548Z,1016.86
2022-12-17T03:39:01.554Z,1016.90
2022-12-17T03:40:01.572Z,1016.94
2022-12-17T03:41:01.565Z,1016.96
2022-12-17T03:42:01.570Z,1016.93
2022-12-17T03:43:01.577Z,1016.98
2022-12-17T03:44:01.584Z,1016.96
2022-12-17T03:45:01.587Z,1016.97
2022-12-17T03:46:01.642Z,1016.96
2022-12-17T03:47:01.600Z,1016.98
2022-12-17T03:48:01.604Z,1017.01
2022-12-17T03:49:01.628Z,1017.05
2022-12-17T03:50:01.614Z,1017.04
2022-12-17T03:51:01.620Z,1017.05
2022-12-17T03:52:01.628Z,1017.03
2022-12-17T03:53:01.631Z,1017.07
2022-12-17T03:54:01.643Z,1017.05
2022-12-17T03:55:01.640Z,1017.11
2022-12-17T03:56:01.650Z,1017.10
2022-12-17T03:57:01.653Z,1017.14
2022-12-17T03:58:01.660Z,1017.12
2022-12-17T03:59:01.666Z,1017.14
2022-12-17T04:00:01.700Z,1017.13
2022-12-17T04:01:01.743Z,1017.17
2022-12-17T04:02:01.759Z,1017.14
2022-12-17T04:03:01.752Z,1017.14
2022-12-17T04:04:01.692Z,1017.12
2022-12-17T04:05:01.700Z,1017.18
2022-12-17T04:06:01.702Z,1017.17
2022-12-17T04:07:01.711Z,1017.17
2022-12-17T04:08:01.717Z,1017.21
2022-12-17T04:09:01.720Z,1017.22
2022-12-17T04:10:01.725Z,1017.22
2022-12-17T04:11:01.732Z,1017.27
2022-12-17T04:12:01.737Z,1017.28
2022-12-17T04:13:01.741Z,1017.29
2022-12-17T04:14:01.748Z,1017.28
2022-12-17T04:15:01.753Z,1017.31
2022-12-17T04:16:01.816Z,1017.32
2022-12-17T04:17:01.766Z,1017.32
2022-12-17T04:18:01.774Z,1017.34
2022-12-17T04:19:01.775Z,1017.36
2022-12-17T04:20:01.779Z,1017.35
2022-12-17T04:21:01.786Z,1017.37
2022-12-17T04:22:01.808Z,1017.39
2022-12-17T04:23:01.799Z,1017.41
2022-12-17T04:24:01.804Z,1017.42
2022-12-17T04:25:01.810Z,1017.44
2022-12-17T04:26:01.814Z,1017.46
2022-12-17T04:27:01.827Z,1017.45
2022-12-17T04:28:01.827Z,1017.48
2022-12-17T04:29:01.838Z,1017.45
2022-12-17T04:30:01.864Z,1017.46
2022-12-17T04:31:01.891Z,1017.44
2022-12-17T04:32:01.850Z,1017.47
2022-12-17T04:33:01.856Z,1017.45
2022-12-17T04:34:01.868Z,1017.44
2022-12-17T04:35:01.868Z,1017.46
2022-12-17T04:36:01.886Z,1017.48
2022-12-17T04:37:01.880Z,1017.49
2022-12-17T04:38:01.882Z,1017.48
2022-12-17T04:39:01.888Z,1017.51
2022-12-17T04:40:01.948Z,1017.49
2022-12-17T04:41:01.900Z,1017.47
2022-12-17T04:42:01.909Z,1017.51
2022-12-17T04:43:01.913Z,1017.50
2022-12-17T04:44:03.500Z,1017.50
2022-12-17T04:45:01.930Z,1017.51
2022-12-17T04:46:01.969Z,1017.54
2022-12-17T04:47:01.936Z,1017.50
2022-12-17T04:48:01.941Z,1017.56
2022-12-17T04:49:01.945Z,1017.54
2022-12-17T04:50:01.957Z,1017.57
2022-12-17T04:51:01.957Z,1017.56
2022-12-17T04:52:01.963Z,1017.58
2022-12-17T04:53:01.971Z,1017.57
2022-12-17T04:54:01.974Z,1017.58
2022-12-17T04:55:01.982Z,1017.52
2022-12-17T04:56:01.985Z,1017.54
2022-12-17T04:57:01.991Z,1017.55
2022-12-17T04:58:02.001Z,1017.56
2022-12-17T04:59:02.001Z,1017.53
2022-12-17T05:00:02.010Z,1017.56
2022-12-17T05:01:02.013Z,1017.54
2022-12-17T05:02:02.123Z,1017.56
2022-12-17T05:03:02.180Z,1017.56
2022-12-17T05:04:02.108Z,1017.57
2022-12-17T05:05:02.046Z,1017.62
2022-12-17T05:06:02.042Z,1017.60
2022-12-17T05:07:02.045Z,1017.60
2022-12-17T05:08:02.053Z,1017.62
2022-12-17T05:09:02.066Z,1017.65
2022-12-17T05:10:02.070Z,1017.66
2022-12-17T05:11:02.071Z,1017.66
2022-12-17T05:12:02.078Z,1017.72
2022-12-17T05:13:02.079Z,1017.75
2022-12-17T05:14:02.086Z,1017.68
2022-12-17T05:15:02.090Z,1017.71
2022-12-17T05:16:02.160Z,1017.71
2022-12-17T05:17:02.101Z,1017.76
2022-12-17T05:18:02.110Z,1017.71
2022-12-17T05:19:02.112Z,1017.73
2022-12-17T05:20:02.144Z,1017.71
2022-12-17T05:21:02.125Z,1017.76
2022-12-17T05:22:02.132Z,1017.72
2022-12-17T05:23:02.136Z,1017.72
2022-12-17T05:24:02.140Z,1017.72
2022-12-17T05:25:02.150Z,1017.71
2022-12-17T05:26:02.152Z,1017.76
2022-12-17T05:27:02.161Z,1017.79
2022-12-17T05:28:02.169Z,1017.79
2022-12-17T05:29:02.169Z,1017.76
2022-12-17T05:30:02.176Z,1017.80
2022-12-17T05:31:02.232Z,1017.79
2022-12-17T05:32:02.188Z,1017.79
2022-12-17T05:33:02.193Z,1017.80
2022-12-17T05:34:02.196Z,1017.83
2022-12-17T05:35:02.203Z,1017.80
2022-12-17T05:36:02.208Z,1017.79
2022-12-17T05:37:02.215Z,1017.85
2022-12-17T05:38:02.220Z,1017.85
2022-12-17T05:39:02.230Z,1017.84
2022-12-17T05:40:02.269Z,1017.86
2022-12-17T05:41:02.249Z,1017.87
2022-12-17T05:42:02.251Z,1017.88
2022-12-17T05:43:02.264Z,1017.93
2022-12-17T05:44:02.252Z,1017.97
2022-12-17T05:45:02.270Z,1018.02
2022-12-17T05:46:02.319Z,1018.00
2022-12-17T05:47:02.322Z,1018.05
2022-12-17T05:48:02.276Z,1018.10
2022-12-17T05:49:02.304Z,1018.08
2022-12-17T05:50:02.292Z,1018.12
2022-12-17T05:51:02.299Z,1018.12
2022-12-17T05:52:02.306Z,1018.15
2022-12-17T05:53:02.312Z,1018.20
2022-12-17T05:54:02.306Z,1018.19
2022-12-17T05:55:02.324Z,1018.23
2022-12-17T05:56:02.320Z,1018.21
2022-12-17T05:57:02.325Z,1018.26
2022-12-17T05:58:02.331Z,1018.28
2022-12-17T05:59:02.337Z,1018.32
2022-12-17T06:00:02.347Z,1018.34
2022-12-17T06:01:02.347Z,1018.34
2022-12-17T06:02:02.394Z,1018.35
2022-12-17T06:03:02.496Z,1018.35
2022-12-17T06:04:02.442Z,1018.32
2022-12-17T06:05:02.759Z,1018.31
2022-12-17T06:06:02.374Z,1018.34
2022-12-17T06:07:02.381Z,1018.37
2022-12-17T06:08:02.387Z,1018.36
2022-12-17T06:09:02.390Z,1018.41
2022-12-17T06:10:02.397Z,1018.39
2022-12-17T06:11:02.401Z,1018.32
2022-12-17T06:12:02.985Z,1018.37
2022-12-17T06:13:02.411Z,1018.31
2022-12-17T06:14:02.420Z,1018.38
2022-12-17T06:15:02.424Z,1018.38
2022-12-17T06:16:02.560Z,1018.36
2022-12-17T06:17:02.436Z,1018.34
2022-12-17T06:18:02.440Z,1018.41
2022-12-17T06:19:02.444Z,1018.43
2022-12-17T06:20:02.450Z,1018.45
2022-12-17T06:21:02.461Z,1018.49
2022-12-17T06:22:02.467Z,1018.54
2022-12-17T06:23:02.468Z,1018.55
2022-12-17T06:24:02.473Z,1018.49
2022-12-17T06:25:02.476Z,1018.53
2022-12-17T06:26:02.484Z,1018.52
2022-12-17T06:27:02.492Z,1018.52
2022-12-17T06:28:02.497Z,1018.54
2022-12-17T06:29:02.520Z,1018.52
2022-12-17T06:30:02.505Z,1018.54
2022-12-17T06:31:02.569Z,1018.56
2022-12-17T06:32:02.514Z,1018.60
2022-12-17T06:33:02.522Z,1018.66
2022-12-17T06:34:02.524Z,1018.66
2022-12-17T06:35:02.532Z,1018.67
2022-12-17T06:36:02.537Z,1018.70
2022-12-17T06:37:02.540Z,1018.68
2022-12-17T06:38:02.547Z,1018.61
2022-12-17T06:39:02.553Z,1018.63
2022-12-17T06:40:02.559Z,1018.63
2022-12-17T06:41:02.562Z,1018.67
2022-12-17T06:42:04.513Z,1018.64
2022-12-17T06:43:02.576Z,1018.65
2022-12-17T06:44:02.579Z,1018.65
2022-12-17T06:45:02.590Z,1018.67
2022-12-17T06:46:02.591Z,1018.69
2022-12-17T06:47:02.639Z,1018.70
2022-12-17T06:48:02.603Z,1018.72
2022-12-17T06:49:02.606Z,1018.69
2022-12-17T06:50:02.611Z,1018.74
2022-12-17T06:51:02.616Z,1018.75
2022-12-17T06:52:02.625Z,1018.78
2022-12-17T06:53:02.626Z,1018.79
2022-12-17T06:54:02.632Z,1018.78
2022-12-17T06:55:02.641Z,1018.83
2022-12-17T06:56:02.644Z,1018.84
2022-12-17T06:57:02.650Z,1018.84
2022-12-17T06:58:02.655Z,1018.90
2022-12-17T06:59:02.665Z,1018.88
2022-12-17T07:00:02.667Z,1018.93
2022-12-17T07:01:02.740Z,1018.93
2022-12-17T07:02:02.787Z,1018.97
2022-12-17T07:03:02.763Z,1019.04
2022-12-17T07:04:02.689Z,1019.02
2022-12-17T07:05:02.693Z,1019.10
2022-12-17T07:06:02.700Z,1019.09
2022-12-17T07:07:02.704Z,1019.14
2022-12-17T07:08:02.713Z,1019.16
2022-12-17T07:09:02.714Z,1019.14
2022-12-17T07:10:02.723Z,1019.17
2022-12-17T07:11:02.728Z,1019.20
2022-12-17T07:12:02.764Z,1019.19
2022-12-17T07:13:02.736Z,1019.20
2022-12-17T07:14:02.744Z,1019.21
2022-12-17T07:15:02.749Z,1019.20
2022-12-17T07:16:02.808Z,1019.22
2022-12-17T07:17:02.760Z,1019.25
2022-12-17T07:18:02.767Z,1019.30
2022-12-17T07:19:02.771Z,1019.28
2022-12-17T07:20:02.776Z,1019.29
2022-12-17T07:21:02.782Z,1019.32
2022-12-17T07:22:02.789Z,1019.35
2022-12-17T07:23:02.796Z,1019.35
2022-12-17T07:24:02.805Z,1019.33
2022-12-17T07:25:02.810Z,1019.37
2022-12-17T07:26:02.811Z,1019.37
2022-12-17T07:27:02.820Z,1019.39
2022-12-17T07:28:02.820Z,1019.41
2022-12-17T07:29:02.829Z,1019.39
2022-12-17T07:30:02.849Z,1019.40
2022-12-17T07:31:02.840Z,1019.46
2022-12-17T07:32:02.882Z,1019.46
2022-12-17T07:33:02.850Z,1019.43
2022-12-17T07:34:02.854Z,1019.49
2022-12-17T07:35:02.865Z,1019.40
2022-12-17T07:36:02.868Z,1019.47
2022-12-17T07:37:02.873Z,1019.50
2022-12-17T07:38:02.880Z,1019.49
2022-12-17T07:39:02.884Z,1019.54
2022-12-17T07:40:02.891Z,1019.49
2022-12-17T07:41:02.894Z,1019.54
2022-12-17T07:42:02.900Z,1019.50
2022-12-17T07:43:02.911Z,1019.56
2022-12-17T07:44:02.914Z,1019.56
2022-12-17T07:45:02.928Z,1019.60
2022-12-17T07:46:02.968Z,1019.59
2022-12-17T07:47:02.929Z,1019.65
2022-12-17T07:48:02.940Z,1019.68
2022-12-17T07:49:02.941Z,1019.70
2022-12-17T07:50:02.945Z,1019.74
2022-12-17T07:51:02.957Z,1019.78
2022-12-17T07:52:02.959Z,1019.80
2022-12-17T07:53:02.969Z,1019.80
2022-12-17T07:54:02.974Z,1019.84
2022-12-17T07:55:02.977Z,1019.83
2022-12-17T07:56:02.983Z,1019.87
2022-12-17T07:57:02.993Z,1019.90
2022-12-17T07:58:02.995Z,1019.93
2022-12-17T07:59:03.000Z,1019.93
2022-12-17T08:00:03.010Z,1019.93
2022-12-17T08:01:03.044Z,1019.97
2022-12-17T08:02:03.172Z,1019.94
2022-12-17T08:03:03.143Z,1019.94
2022-12-17T08:04:03.033Z,1019.99
2022-12-17T08:05:03.041Z,1020.01
2022-12-17T08:06:03.046Z,1020.03
2022-12-17T08:07:08.709Z,1019.99
2022-12-17T08:08:03.053Z,1020.01
2022-12-17T08:09:03.068Z,1019.98
2022-12-17T08:10:03.065Z,1020.01
2022-12-17T08:11:03.074Z,1020.01
2022-12-17T08:12:03.075Z,1020.00
2022-12-17T08:13:03.082Z,1020.00
2022-12-17T08:14:03.088Z,1020.02
2022-12-17T08:15:03.094Z,1020.01
2022-12-17T08:16:03.100Z,1020.04
2022-12-17T08:17:03.158Z,1020.06
2022-12-17T08:18:03.111Z,1019.98
2022-12-17T08:19:03.120Z,1019.98
2022-12-17T08:20:03.123Z,1019.97
2022-12-17T08:21:03.129Z,1020.00
2022-12-17T08:22:03.135Z,1019.96
2022-12-17T08:23:03.142Z,1019.99
2022-12-17T08:24:03.148Z,1020.00
2022-12-17T08:25:03.153Z,1019.96
2022-12-17T08:26:03.157Z,1019.98
2022-12-17T08:27:03.166Z,1020.02
2022-12-17T08:28:07.373Z,1020.03
2022-12-17T08:29:03.178Z,1020.04
2022-12-17T08:30:03.184Z,1020.07
2022-12-17T08:31:03.224Z,1020.07
2022-12-17T08:32:03.199Z,1020.09
2022-12-17T08:33:03.204Z,1020.10
2022-12-17T08:34:07.722Z,1020.15
2022-12-17T08:35:03.215Z,1020.16
2022-12-17T08:36:03.222Z,1020.18
2022-12-17T08:37:03.226Z,1020.19
2022-12-17T08:38:03.234Z,1020.23
2022-12-17T08:39:03.238Z,1020.24
2022-12-17T08:40:03.249Z,1020.22
2022-12-17T08:41:03.254Z,1020.23
2022-12-17T08:42:04.647Z,1020.26
2022-12-17T08:43:03.262Z,1020.28
2022-12-17T08:44:03.270Z,1020.22
2022-12-17T08:45:03.275Z,1020.22
2022-12-17T08:46:03.363Z,1020.24
2022-12-17T08:47:03.288Z,1020.23
2022-12-17T08:48:04.272Z,1020.25
2022-12-17T08:49:03.303Z,1020.23
2022-12-17T08:50:03.305Z,1020.29
2022-12-17T08:51:03.312Z,1020.28
2022-12-17T08:52:03.319Z,1020.29
2022-12-17T08:53:03.323Z,1020.28
2022-12-17T08:54:03.329Z,1020.33
2022-12-17T08:55:03.336Z,1020.31
2022-12-17T08:56:03.344Z,1020.31
2022-12-17T08:57:03.348Z,1020.33
2022-12-17T08:58:03.357Z,1020.33
2022-12-17T08:59:03.360Z,1020.30
2022-12-17T09:00:03.368Z,1020.35
2022-12-17T09:01:03.395Z,1020.38
2022-12-17T09:02:03.548Z,1020.38
2022-12-17T09:03:03.571Z,1020.33
2022-12-17T09:04:03.394Z,1020.35
2022-12-17T09:05:03.399Z,1020.36
2022-12-17T09:06:03.404Z,1020.38
2022-12-17T09:07:03.413Z,1020.36
2022-12-17T09:08:03.417Z,1020.38
2022-12-17T09:09:03.426Z,1020.42
2022-12-17T09:10:03.429Z,1020.43
2022-12-17T09:11:03.436Z,1020.43
2022-12-17T09:12:03.443Z,1020.47
2022-12-17T09:13:05.120Z,1020.47
2022-12-17T09:14:03.455Z,1020.50
2022-12-17T09:15:03.460Z,1020.51
2022-12-17T09:16:03.470Z,1020.54
2022-12-17T09:17:03.532Z,1020.54
2022-12-17T09:18:03.480Z,1020.54
2022-12-17T09:19:03.507Z,1020.57
2022-12-17T09:20:03.494Z,1020.60
2022-12-17T09:21:03.498Z,1020.60
2022-12-17T09:22:03.504Z,1020.60
2022-12-17T09:23:03.510Z,1020.62
2022-12-17T09:24:03.523Z,1020.61
2022-12-17T09:25:03.526Z,1020.58
2022-12-17T09:26:03.531Z,1020.61
2022-12-17T09:27:03.538Z,1020.55
2022-12-17T09:28:03.544Z,1020.59
2022-12-17T09:29:03.551Z,1020.58
2022-12-17T09:30:03.560Z,1020.59
2022-12-17T09:31:03.603Z,1020.57
2022-12-17T09:32:03.570Z,1020.60
2022-12-17T09:33:03.573Z,1020.58
2022-12-17T09:34:03.580Z,1020.64
2022-12-17T09:35:03.586Z,1020.64
2022-12-17T09:36:03.597Z,1020.63
2022-12-17T09:37:03.601Z,1020.63
2022-12-17T09:38:03.607Z,1020.62
2022-12-17T09:39:03.612Z,1020.63
2022-12-17T09:40:03.619Z,1020.64
2022-12-17T09:41:03.626Z,1020.64
2022-12-17T09:42:03.636Z,1020.63
2022-12-17T09:43:03.644Z,1020.68
2022-12-17T09:44:03.645Z,1020.64
2022-12-17T09:45:03.650Z,1020.63
2022-12-17T09:46:03.707Z,1020.64
2022-12-17T09:47:03.662Z,1020.64
2022-12-17T09:48:03.669Z,1020.67
2022-12-17T09:49:03.675Z,1020.65
2022-12-17T09:50:03.690Z,1020.66
2022-12-17T09:51:03.690Z,1020.65
2022-12-17T09:52:03.698Z,1020.66
2022-12-17T09:53:03.702Z,1020.71
2022-12-17T09:54:03.707Z,1020.70
2022-12-17T09:55:03.713Z,1020.71
2022-12-17T09:56:03.720Z,1020.69
2022-12-17T09:57:03.727Z,1020.70
2022-12-17T09:58:03.736Z,1020.71
2022-12-17T09:59:03.742Z,1020.71
2022-12-17T10:00:03.758Z,1020.69
2022-12-17T10:01:03.775Z,1020.71
2022-12-17T10:02:03.980Z,1020.71
2022-12-17T10:03:03.973Z,1020.76
2022-12-17T10:04:03.775Z,1020.72
2022-12-17T10:05:03.780Z,1020.75
2022-12-17T10:06:03.786Z,1020.76
2022-12-17T10:07:03.793Z,1020.80
2022-12-17T10:08:03.801Z,1020.79
2022-12-17T10:09:03.884Z,1020.80
2022-12-17T10:10:03.814Z,1020.81
2022-12-17T10:11:03.830Z,1020.78
2022-12-17T10:12:03.832Z,1020.78
2022-12-17T10:13:03.835Z,1020.78
2022-12-17T10:14:03.843Z,1020.82
2022-12-17T10:15:03.848Z,1020.79
2022-12-17T10:16:03.903Z,1020.86
2022-12-17T10:17:08.411Z,1020.80
2022-12-17T10:18:03.877Z,1020.82
2022-12-17T10:19:03.933Z,1020.83
2022-12-17T10:20:03.883Z,1020.85
2022-12-17T10:21:03.886Z,1020.93
2022-12-17T10:22:03.896Z,1020.96
2022-12-17T10:23:03.901Z,1020.97
2022-12-17T10:24:03.910Z,1020.98
2022-12-17T10:25:03.915Z,1021.02
2022-12-17T10:26:03.922Z,1020.92
2022-12-17T10:27:03.929Z,1021.00
2022-12-17T10:28:03.942Z,1021.00
2022-12-17T10:29:03.951Z,1020.99
2022-12-17T10:30:03.951Z,1021.03
2022-12-17T10:31:03.980Z,1020.95
2022-12-17T10:32:03.962Z,1020.94
2022-12-17T10:33:03.969Z,1020.95
2022-12-17T10:34:03.976Z,1020.95
2022-12-17T10:35:05.702Z,1020.93
2022-12-17T10:36:03.992Z,1020.95
2022-12-17T10:37:03.995Z,1020.96
2022-12-17T10:38:04.001Z,1020.96
2022-12-17T10:39:04.009Z,1020.95
2022-12-17T10:40:04.014Z,1021.02
2022-12-17T10:41:04.044Z,1021.00
2022-12-17T10:42:04.035Z,1021.04
2022-12-17T10:43:04.059Z,1021.04
2022-12-17T10:44:04.051Z,1021.02
2022-12-17T10:45:04.049Z,1021.05
2022-12-17T10:46:04.126Z,1021.10
2022-12-17T10:47:04.063Z,1021.08
2022-12-17T10:48:04.070Z,1021.06
2022-12-17T10:49:09.778Z,1021.09
2022-12-17T10:50:04.083Z,1021.09
2022-12-17T10:51:04.097Z,1021.11
2022-12-17T10:52:04.104Z,1021.14
2022-12-17T10:53:04.119Z,1021.12
2022-12-17T10:54:04.126Z,1021.14
2022-12-17T10:55:04.117Z,1021.16
2022-12-17T10:56:04.125Z,1021.20
2022-12-17T10:57:04.172Z,1021.17
2022-12-17T10:58:04.135Z,1021.18
2022-12-17T10:59:04.140Z,1021.20
2022-12-17T11:00:04.149Z,1021.25
2022-12-17T11:01:04.156Z,1021.21
2022-12-17T11:02:04.306Z,1021.22
2022-12-17T11:03:04.310Z,1021.24
2022-12-17T11:04:04.177Z,1021.21
2022-12-17T11:05:04.182Z,1021.25
2022-12-17T11:06:04.189Z,1021.23
2022-12-17T11:07:04.195Z,1021.24
2022-12-17T11:08:04.201Z,1021.25
2022-12-17T11:09:04.208Z,1021.23
2022-12-17T11:10:08.960Z,1021.28
2022-12-17T11:11:04.224Z,1021.25
2022-12-17T11:12:07.364Z,1021.25
2022-12-17T11:13:04.235Z,1021.25
2022-12-17T11:14:04.242Z,1021.30
2022-12-17T11:15:04.250Z,1021.34
2022-12-17T11:16:04.333Z,1021.27
2022-12-17T11:17:04.261Z,1021.27
2022-12-17T11:18:09.441Z,1021.27
2022-12-17T11:19:04.273Z,1021.26
2022-12-17T11:20:04.283Z,1021.27
2022-12-17T11:21:04.287Z,1021.28
2022-12-17T11:22:04.295Z,1021.26
2022-12-17T11:23:04.303Z,1021.27
2022-12-17T11:24:04.308Z,1021.32
2022-12-17T11:25:04.313Z,1021.34
2022-12-17T11:26:04.321Z,1021.30
2022-12-17T11:27:04.325Z,1021.28
2022-12-17T11:28:04.335Z,1021.23
2022-12-17T11:29:04.340Z,1021.30
2022-12-17T11:30:04.345Z,1021.33
2022-12-17T11:31:04.397Z,1021.35
2022-12-17T11:32:04.359Z,1021.38
2022-12-17T11:33:04.369Z,1021.38
2022-12-17T11:34:04.372Z,1021.42
2022-12-17T11:35:04.378Z,1021.42
2022-12-17T11:36:04.387Z,1021.43
2022-12-17T11:37:04.391Z,1021.43
2022-12-17T11:38:04.398Z,1021.40
2022-12-17T11:39:04.409Z,1021.45
2022-12-17T11:40:04.413Z,1021.48
2022-12-17T11:41:04.421Z,1021.50
2022-12-17T11:42:09.495Z,1021.53
2022-12-17T11:43:04.437Z,1021.50
2022-12-17T11:44:04.439Z,1021.50
2022-12-17T11:45:04.446Z,1021.51
2022-12-17T11:46:04.507Z,1021.50
2022-12-17T11:47:04.460Z,1021.50
2022-12-17T11:48:04.468Z,1021.53
2022-12-17T11:49:04.473Z,1021.54
2022-12-17T11:50:04.479Z,1021.56
2022-12-17T11:51:04.486Z,1021.55
2022-12-17T11:52:04.494Z,1021.60
2022-12-17T11:53:04.501Z,1021.62
2022-12-17T11:54:04.508Z,1021.60
2022-12-17T11:55:04.516Z,1021.57
2022-12-17T11:56:04.521Z,1021.59
2022-12-17T11:57:04.528Z,1021.61
2022-12-17T11:58:04.537Z,1021.62
2022-12-17T11:59:04.540Z,1021.61
2022-12-17T12:00:04.803Z,1021.62
2022-12-17T12:01:04.554Z,1021.62
2022-12-17T12:02:04.562Z,1021.63
2022-12-17T12:03:04.697Z,1021.64
2022-12-17T12:04:04.670Z,1021.64
2022-12-17T12:05:04.582Z,1021.65